Time;durP1;ratioP1;P1;durP2;ratioP2;P2;SDS_P1;SDS_P2;PMS_P1;PMS_P2;Temp;Humidity;BMP_temperature;BMP_pressure;BME280_temperature;BME280_humidity;BME280_pressure;Samples;Min_cycle;Max_cycle;Signal;HPM_P1;HPM_P2
2022/03/26 00:00:15;;;;;;;14.55;7.32;;;;;;;6.98;47.51;100816.56;4516364;31;33965;-70
2022/03/26 00:02:44;;;;;;;13.07;7.15;;;;;;;6.78;48.04;100826.38;4515919;31;34294;-70
2022/03/26 00:05:11;;;;;;;13.52;7.40;;;;;;;6.64;48.16;100820.06;4516698;31;34053;-69
2022/03/26 00:07:39;;;;;;;13.62;7.20;;;;;;;6.76;48.46;100820.37;4516536;31;33133;-70
2022/03/26 00:10:07;;;;;;;13.05;6.60;;;;;;;6.87;48.48;100824.34;4516257;31;33593;-70
2022/03/26 00:12:35;;;;;;;12.48;7.15;;;;;;;6.81;48.50;100825.19;4516760;31;35001;-67
2022/03/26 00:15:04;;;;;;;13.30;7.62;;;;;;;6.74;48.48;100831.34;4516554;31;34644;-70
2022/03/26 00:17:31;;;;;;;13.77;7.32;;;;;;;6.93;47.81;100837.91;4516554;31;33275;-69
2022/03/26 00:19:59;;;;;;;14.35;7.43;;;;;;;6.88;47.95;100832.25;4516288;31;34752;-67
2022/03/26 00:22:26;;;;;;;11.85;7.10;;;;;;;6.88;47.93;100840.34;4516503;31;34319;-67
2022/03/26 00:24:54;;;;;;;12.15;6.72;;;;;;;6.69;48.02;100839.19;4516645;31;34654;-70
2022/03/26 00:27:22;;;;;;;15.23;7.12;;;;;;;6.09;49.51;100844.09;4516424;31;33381;-69
2022/03/26 00:29:49;;;;;;;12.50;7.43;;;;;;;6.23;49.38;100841.50;4516105;31;33911;-69
2022/03/26 00:32:17;;;;;;;14.00;7.30;;;;;;;6.58;49.03;100837.03;4516701;31;34466;-69
2022/03/26 00:34:45;;;;;;;16.12;7.87;;;;;;;6.60;48.80;100834.97;4516468;31;34220;-70
2022/03/26 00:37:13;;;;;;;13.60;7.87;;;;;;;6.29;49.46;100829.97;4516365;31;33703;-69
2022/03/26 00:39:42;;;;;;;12.60;7.22;;;;;;;6.36;49.59;100834.38;4516428;31;33447;-70
2022/03/26 00:42:10;;;;;;;13.48;7.70;;;;;;;6.22;49.70;100834.44;4516624;31;34254;-70
2022/03/26 00:44:38;;;;;;;18.62;8.05;;;;;;;6.35;49.44;100831.88;4516458;31;33725;-66
2022/03/26 00:47:06;;;;;;;15.23;7.55;;;;;;;6.61;48.89;100833.09;4516543;31;33608;-70
2022/03/26 00:49:34;;;;;;;14.52;7.70;;;;;;;6.00;50.39;100836.31;4515914;31;34084;-69
2022/03/26 00:52:03;;;;;;;14.48;8.02;;;;;;;6.08;50.80;100830.81;4516610;31;33762;-69
2022/03/26 00:54:30;;;;;;;15.40;7.65;;;;;;;6.10;50.61;100834.13;4516483;31;34499;-65
2022/03/26 00:56:59;;;;;;;15.10;8.40;;;;;;;6.27;50.23;100827.47;4516345;31;33183;-68
2022/03/26 00:59:26;;;;;;;13.93;8.05;;;;;;;6.23;50.44;100828.03;4515845;31;33705;-70
2022/03/26 01:01:53;;;;;;;16.87;8.25;;;;;;;6.42;50.07;100829.25;4516370;31;34323;-70
2022/03/26 01:04:21;;;;;;;16.92;8.60;;;;;;;6.21;50.25;100828.22;4516609;31;34139;-70
2022/03/26 01:06:49;;;;;;;14.00;7.68;;;;;;;6.24;50.01;100827.84;4516463;31;34398;-70
2022/03/26 01:09:16;;;;;;;14.43;8.23;;;;;;;6.15;50.45;100829.00;4515932;31;34796;-70
2022/03/26 01:11:43;;;;;;;14.23;8.43;;;;;;;6.53;49.62;100824.13;4516593;31;34391;-70
2022/03/26 01:14:11;;;;;;;17.25;8.85;;;;;;;6.39;49.92;100819.66;4516282;31;34684;-69
2022/03/26 01:16:38;;;;;;;12.35;7.18;;;;;;;6.70;49.01;100821.97;4516255;31;35024;-70
2022/03/26 01:19:06;;;;;;;17.83;8.48;;;;;;;6.47;49.92;100821.41;4514609;31;34544;-70
2022/03/26 01:21:34;;;;;;;21.15;8.52;;;;;;;6.04;51.16;100816.03;4516293;31;34271;-69
2022/03/26 01:24:01;;;;;;;15.50;8.05;;;;;;;6.51;49.67;100814.59;4516135;31;33819;-69
2022/03/26 01:26:29;;;;;;;14.00;7.72;;;;;;;6.37;50.19;100817.19;4516352;31;33690;-69
2022/03/26 01:28:56;;;;;;;17.35;8.18;;;;;;;6.48;50.31;100813.13;4516190;31;33923;-70
2022/03/26 01:31:23;;;;;;;17.35;8.05;;;;;;;6.15;51.29;100813.69;4516174;31;35188;-68
2022/03/26 01:33:51;;;;;;;14.20;7.85;;;;;;;6.40;50.78;100818.66;4515912;31;34780;-68
2022/03/26 01:36:18;;;;;;;15.30;7.55;;;;;;;6.51;50.60;100811.88;4516248;31;33400;-70
2022/03/26 01:38:46;;;;;;;14.25;8.13;;;;;;;6.38;51.06;100812.63;4515815;31;33958;-68
2022/03/26 01:41:14;;;;;;;13.45;7.45;;;;;;;6.43;50.90;100809.34;4515761;31;34109;-67
2022/03/26 01:43:42;;;;;;;12.63;7.43;;;;;;;6.85;49.62;100807.56;4516136;31;34002;-69
2022/03/26 01:46:10;;;;;;;11.77;7.05;;;;;;;7.09;48.67;100811.62;4516041;31;34346;-69
2022/03/26 01:48:39;;;;;;;13.85;7.47;;;;;;;6.81;49.09;100806.28;4515872;31;34015;-70
2022/03/26 01:51:16;;;;;;;14.00;7.75;;;;;;;6.54;49.79;100798.84;4516120;31;35569;-70
2022/03/26 01:53:47;;;;;;;13.80;6.95;;;;;;;6.29;50.31;100798.44;4514895;31;34954;-70
2022/03/26 01:56:16;;;;;;;14.55;7.60;;;;;;;6.18;50.79;100803.53;4516211;31;33245;-70
2022/03/26 01:58:44;;;;;;;12.57;7.30;;;;;;;6.40;50.64;100805.16;4515640;31;34117;-70
2022/03/26 02:01:12;;;;;;;13.98;7.37;;;;;;;6.23;51.10;100798.41;4515422;31;35082;-66
2022/03/26 02:03:40;;;;;;;12.63;7.50;;;;;;;6.52;50.68;100794.66;4515306;31;34066;-69
2022/03/26 02:06:07;;;;;;;16.40;7.75;;;;;;;6.28;51.25;100795.94;4515853;31;34308;-70
2022/03/26 02:08:35;;;;;;;17.87;7.87;;;;;;;6.33;50.53;100799.72;4515448;31;33782;-70
2022/03/26 02:11:03;;;;;;;15.25;7.25;;;;;;;6.34;50.53;100795.16;4515634;31;34300;-67
2022/03/26 02:13:57;;;;;;;14.68;8.00;;;;;;;6.27;50.91;100791.59;4515675;31;34802;-71
2022/03/26 02:16:25;;;;;;;16.80;7.87;;;;;;;6.35;51.24;100799.53;4515784;31;34530;-70
2022/03/26 02:18:53;;;;;;;14.23;7.37;;;;;;;6.38;50.94;100796.44;4515226;31;33831;-69
2022/03/26 02:21:21;;;;;;;15.35;8.35;;;;;;;6.28;50.71;100790.56;4515427;31;34004;-66
2022/03/26 02:23:50;;;;;;;16.70;8.82;;;;;;;6.38;50.14;100796.44;4515742;31;33920;-69
2022/03/26 02:26:25;;;;;;;18.50;8.27;;;;;;;6.13;51.03;100787.94;4515328;31;33541;-70
2022/03/26 02:28:53;;;;;;;;;;;;;;;6.09;51.49;100802.81;4515405;31;34791;-70
2022/03/26 02:31:21;;;;;;;15.75;8.52;;;;;;;6.36;50.50;100804.72;4515375;31;34681;-69
2022/03/26 02:33:49;;;;;;;16.83;8.00;;;;;;;6.34;50.49;100795.16;4515376;31;33596;-70
2022/03/26 02:36:17;;;;;;;15.23;8.60;;;;;;;6.48;50.34;100791.56;4515489;31;33270;-70
2022/03/26 02:38:45;;;;;;;18.27;8.25;;;;;;;6.08;51.26;100793.91;4514993;31;34029;-70
2022/03/26 02:41:12;;;;;;;15.18;8.40;;;;;;;5.95;52.02;100783.00;4514999;31;34263;-69
2022/03/26 02:43:39;;;;;;;14.87;7.90;;;;;;;5.83;52.24;100785.38;4515603;31;33665;-70
2022/03/26 02:46:07;;;;;;;17.17;8.25;;;;;;;6.14;51.37;100785.06;4515191;31;33179;-67
2022/03/26 02:48:35;;;;;;;14.60;7.50;;;;;;;6.12;51.49;100787.09;4514925;31;34733;-69
2022/03/26 02:51:03;;;;;;;13.98;8.05;;;;;;;6.32;50.79;100783.75;4515174;31;34296;-70
2022/03/26 02:53:30;;;;;;;14.50;7.97;;;;;;;5.70;52.34;100791.47;4515324;31;34649;-69
2022/03/26 02:55:58;;;;;;;12.90;8.48;;;;;;;5.42;52.88;100795.88;4515037;31;33287;-67
2022/03/26 02:58:25;;;;;;;16.35;8.38;;;;;;;5.93;51.72;100802.03;4514757;31;33975;-70
2022/03/26 03:00:52;;;;;;;17.20;8.60;;;;;;;5.91;51.44;100803.25;4514830;31;34319;-69
2022/03/26 03:03:20;;;;;;;15.65;8.63;;;;;;;5.80;51.62;100791.12;4514799;31;33789;-69
2022/03/26 03:05:48;;;;;;;12.57;7.25;;;;;;;5.63;51.84;100792.41;4514951;31;33795;-69
2022/03/26 03:08:15;;;;;;;12.68;7.62;;;;;;;5.77;51.71;100791.53;4514812;31;33884;-70
2022/03/26 03:10:43;;;;;;;14.25;7.57;;;;;;;5.59;52.37;100793.81;4513518;31;33865;-70
2022/03/26 03:13:10;;;;;;;14.05;7.05;;;;;;;5.70;52.24;100794.16;4515288;31;33625;-69
2022/03/26 03:15:38;;;;;;;12.75;7.20;;;;;;;5.56;52.64;100795.03;4517109;31;33503;-69
2022/03/26 03:18:05;;;;;;;12.85;6.78;;;;;;;5.91;51.94;100797.88;4516742;31;34890;-68
2022/03/26 03:20:33;;;;;;;12.77;7.68;;;;;;;6.14;51.08;100798.53;4517173;31;34182;-69
2022/03/26 03:23:01;;;;;;;12.48;7.10;;;;;;;6.09;51.06;100790.22;4517240;31;33433;-69
2022/03/26 03:25:29;;;;;;;14.35;6.95;;;;;;;6.40;50.28;100797.09;4516628;31;33002;-70
2022/03/26 03:27:57;;;;;;;16.05;7.25;;;;;;;5.59;52.19;100785.72;4517084;31;33968;-70
2022/03/26 03:30:26;;;;;;;12.52;7.12;;;;;;;5.63;52.02;100795.09;4516866;31;34189;-70
2022/03/26 03:32:53;;;;;;;16.80;7.62;;;;;;;5.52;53.13;100791.03;4516987;31;33977;-68
2022/03/26 03:35:21;;;;;;;11.95;6.82;;;;;;;5.87;51.89;100796.56;4517191;31;33498;-69
2022/03/26 03:37:49;;;;;;;12.43;7.45;;;;;;;5.70;52.06;100793.28;4517051;31;34569;-71
2022/03/26 03:40:17;;;;;;;16.10;8.02;;;;;;;5.91;52.37;100796.00;4516599;31;35044;-70
2022/03/26 03:42:45;;;;;;;14.65;7.35;;;;;;;6.09;51.16;100792.03;4516958;31;34047;-69
2022/03/26 03:45:13;;;;;;;11.80;6.62;;;;;;;5.59;52.26;100791.94;4517011;31;34375;-69
2022/03/26 03:47:40;;;;;;;13.48;7.15;;;;;;;5.82;52.31;100789.06;4516787;31;33995;-70
2022/03/26 03:50:08;;;;;;;13.20;7.40;;;;;;;5.78;52.12;100787.78;4516782;31;33794;-70
2022/03/26 03:52:36;;;;;;;12.98;7.37;;;;;;;5.17;54.19;100785.47;4516821;31;34176;-70
2022/03/26 03:55:05;;;;;;;11.45;6.53;;;;;;;5.34;53.72;100788.78;4516631;31;33722;-69
2022/03/26 03:57:33;;;;;;;9.13;6.18;;;;;;;5.07;54.56;100787.59;4515575;31;33969;-69
2022/03/26 04:00:01;;;;;;;14.15;6.75;;;;;;;4.82;55.23;100782.50;4516705;31;34377;-68
2022/03/26 04:02:39;;;;;;;12.85;6.55;;;;;;;4.69;55.54;100783.16;4517204;31;34076;-70
2022/03/26 04:05:09;;;;;;;17.42;6.93;;;;;;;4.58;55.34;100789.00;4516682;31;33365;-69
2022/03/26 04:07:44;;;;;;;12.95;6.75;;;;;;;4.39;55.80;100782.31;4515621;31;34070;-70
2022/03/26 04:10:12;;;;;;;12.88;6.30;;;;;;;5.29;53.54;100786.66;4515384;31;34057;-70
2022/03/26 04:12:42;;;;;;;12.93;7.20;;;;;;;5.38;52.91;100784.69;4516575;31;34723;-65
2022/03/26 04:15:11;;;;;;;12.00;6.62;;;;;;;5.41;53.26;100783.47;4516777;31;33390;-71
2022/03/26 04:17:39;;;;;;;12.23;7.40;;;;;;;5.42;53.69;100783.28;4516541;31;33700;-70
2022/03/26 04:20:09;;;;;;;13.07;6.90;;;;;;;5.28;54.54;100784.12;4516365;31;34328;-67
2022/03/26 04:22:37;;;;;;;13.23;6.75;;;;;;;4.80;55.72;100789.09;4516925;31;33747;-69
2022/03/26 04:25:06;;;;;;;13.65;6.78;;;;;;;4.97;55.37;100795.97;4515911;31;33333;-65
2022/03/26 04:27:34;;;;;;;16.17;7.28;;;;;;;5.24;54.41;100797.13;4516303;31;34067;-69
2022/03/26 04:30:01;;;;;;;11.45;7.35;;;;;;;5.37;54.37;100796.44;4516715;31;33812;-70
2022/03/26 04:32:30;;;;;;;13.35;6.78;;;;;;;5.51;53.78;100794.78;4516596;31;33158;-65
2022/03/26 04:34:57;;;;;;;12.35;6.80;;;;;;;4.80;55.48;100806.06;4516288;31;34356;-70
2022/03/26 04:37:24;;;;;;;14.25;7.68;;;;;;;4.42;56.59;100810.66;4516612;31;34648;-68
2022/03/26 04:39:52;;;;;;;14.00;7.25;;;;;;;4.04;57.68;100816.00;4516286;31;35077;-70
2022/03/26 04:42:20;;;;;;;16.52;9.15;;;;;;;5.07;55.02;100809.13;4516221;31;34769;-71
2022/03/26 04:44:47;;;;;;;15.30;8.15;;;;;;;5.00;55.46;100810.88;4515033;31;33646;-71
2022/03/26 04:47:14;;;;;;;20.50;11.60;;;;;;;5.01;55.45;100810.72;4516554;31;34092;-67
2022/03/26 04:49:42;;;;;;;19.80;10.63;;;;;;;5.24;55.19;100810.56;4516216;31;33846;-71
2022/03/26 04:52:09;;;;;;;19.83;10.15;;;;;;;5.20;54.90;100811.13;4516765;31;33629;-69
2022/03/26 04:54:38;;;;;;;23.00;11.32;;;;;;;5.04;55.51;100804.94;4516506;31;33684;-70
2022/03/26 04:57:05;;;;;;;18.85;10.25;;;;;;;4.70;56.70;100810.88;4516240;31;33990;-70
2022/03/26 04:59:33;;;;;;;19.33;10.00;;;;;;;5.00;55.84;100813.56;4515881;31;34309;-65
2022/03/26 05:02:00;;;;;;;22.15;11.40;;;;;;;5.03;56.13;100805.12;4516565;31;33687;-65
2022/03/26 05:04:28;;;;;;;17.35;10.35;;;;;;;5.28;55.67;100809.19;4516276;31;33650;-64
2022/03/26 05:06:55;;;;;;;18.85;10.30;;;;;;;5.41;55.32;100813.91;4516249;31;34760;-66
2022/03/26 05:09:23;;;;;;;15.70;8.90;;;;;;;5.26;55.58;100811.22;4516325;31;34035;-65
2022/03/26 05:11:50;;;;;;;19.77;9.50;;;;;;;5.33;55.15;100812.16;4516456;31;33820;-69
2022/03/26 05:14:17;;;;;;;16.52;9.15;;;;;;;5.79;53.88;100819.09;4516252;31;33623;-65
2022/03/26 05:16:45;;;;;;;16.92;8.90;;;;;;;5.57;53.58;100826.28;4501652;31;34403;-65
2022/03/26 05:19:15;;;;;;;15.57;8.60;;;;;;;5.43;53.77;100825.31;4500161;31;34953;-65
2022/03/26 05:21:42;;;;;;;14.98;9.95;;;;;;;6.00;52.74;100823.66;4500473;31;34811;-66
2022/03/26 05:24:11;;;;;;;15.48;9.98;;;;;;;6.35;52.09;100827.31;4502206;31;33653;-64
2022/03/26 05:26:38;;;;;;;17.60;9.75;;;;;;;6.19;51.65;100832.97;4515903;31;34114;-65
2022/03/26 05:29:06;;;;;;;14.82;8.90;;;;;;;5.59;54.11;100834.19;4512533;31;34276;-65
2022/03/26 05:31:33;;;;;;;15.75;9.40;;;;;;;5.94;53.30;100825.28;4499811;31;34240;-68
2022/03/26 05:34:02;;;;;;;17.58;9.05;;;;;;;6.25;53.76;100836.78;4500003;31;33504;-68
2022/03/26 05:36:29;;;;;;;14.77;8.45;;;;;;;7.10;51.88;100833.00;4499242;31;33707;-68
2022/03/26 05:38:57;;;;;;;13.70;8.50;;;;;;;8.08;50.58;100840.00;4499537;31;35175;-69
2022/03/26 05:41:24;;;;;;;15.88;8.52;;;;;;;8.92;47.23;100828.59;4500040;31;34020;-69
2022/03/26 05:43:52;;;;;;;16.05;8.27;;;;;;;9.38;45.33;100830.31;4510307;31;33355;-66
2022/03/26 05:46:20;;;;;;;12.73;7.95;;;;;;;9.96;44.74;100832.12;4516323;31;34675;-66
2022/03/26 05:48:47;;;;;;;12.07;7.35;;;;;;;10.78;42.38;100831.31;4515730;31;34847;-65
2022/03/26 05:51:14;;;;;;;12.40;7.47;;;;;;;11.48;41.55;100831.75;4510438;31;33829;-66
2022/03/26 05:53:42;;;;;;;12.32;7.60;;;;;;;12.07;40.57;100832.06;4500396;31;33043;-65
2022/03/26 05:56:10;;;;;;;10.98;6.87;;;;;;;12.93;39.37;100831.66;4499898;31;33851;-67
2022/03/26 05:58:37;;;;;;;12.68;7.25;;;;;;;13.37;37.68;100829.41;4498498;31;34232;-67
2022/03/26 06:01:05;;;;;;;14.40;7.07;;;;;;;13.56;37.72;100838.22;4499892;31;33955;-69
2022/03/26 06:03:33;;;;;;;12.00;6.95;;;;;;;14.05;36.15;100837.78;4508856;31;33092;-69
2022/03/26 06:06:00;;;;;;;11.95;7.65;;;;;;;15.02;35.34;100850.31;4516472;31;34171;-63
2022/03/26 06:08:28;;;;;;;12.15;7.25;;;;;;;15.27;33.24;100843.53;4508060;31;34036;-63
2022/03/26 06:10:56;;;;;;;12.43;7.62;;;;;;;16.32;32.99;100843.37;4516671;31;33722;-66
2022/03/26 06:13:23;;;;;;;14.07;7.15;;;;;;;16.66;30.48;100832.97;4516519;31;34262;-64
2022/03/26 06:15:51;;;;;;;14.77;7.97;;;;;;;17.35;30.59;100837.53;4516434;31;35039;-64
2022/03/26 06:18:18;;;;;;;13.13;7.40;;;;;;;17.87;29.86;100835.00;4514132;31;33838;-65
2022/03/26 06:20:46;;;;;;;15.15;7.05;;;;;;;18.52;27.14;100840.84;4514142;31;34587;-67
2022/03/26 06:23:13;;;;;;;14.10;6.95;;;;;;;18.42;26.71;100837.00;4515074;31;33715;-64
2022/03/26 06:25:41;;;;;;;12.85;7.55;;;;;;;19.15;28.04;100843.25;4510292;31;34123;-64
2022/03/26 06:28:08;;;;;;;12.23;7.05;;;;;;;19.61;25.80;100843.06;4499359;31;34165;-64
2022/03/26 06:30:35;;;;;;;12.82;7.28;;;;;;;19.93;26.48;100844.59;4516260;31;34044;-65
2022/03/26 06:33:03;;;;;;;13.15;7.47;;;;;;;20.65;23.39;100840.22;4516188;31;33504;-64
2022/03/26 06:35:31;;;;;;;13.90;7.18;;;;;;;20.78;23.97;100840.66;4516177;31;33996;-64
2022/03/26 06:37:58;;;;;;;14.35;7.37;;;;;;;21.48;23.87;100840.19;4514794;31;34189;-64
2022/03/26 06:40:26;;;;;;;12.52;7.05;;;;;;;21.09;23.89;100843.91;4514342;31;34056;-64
2022/03/26 06:42:54;;;;;;;15.18;7.40;;;;;;;21.57;24.24;100848.62;4516391;31;33059;-65
2022/03/26 06:45:21;;;;;;;15.32;7.32;;;;;;;22.13;21.83;100843.13;4516000;31;34738;-66
2022/03/26 06:47:49;;;;;;;14.07;7.40;;;;;;;22.06;24.32;100844.66;4516518;31;35122;-70
2022/03/26 06:50:16;;;;;;;12.15;7.15;;;;;;;22.39;21.43;100841.94;4506857;31;33256;-67
2022/03/26 06:52:43;;;;;;;13.85;7.68;;;;;;;22.90;21.66;100844.66;4513104;31;33616;-68
2022/03/26 06:55:11;;;;;;;16.60;7.50;;;;;;;23.20;21.11;100845.22;4516985;31;33978;-68
2022/03/26 06:57:41;;;;;;;13.13;6.95;;;;;;;23.11;20.83;100849.84;4516899;31;34055;-66
2022/03/26 07:00:09;;;;;;;11.90;7.00;;;;;;;23.49;20.38;100853.22;4517781;31;33990;-67
2022/03/26 07:02:37;;;;;;;11.40;6.93;;;;;;;22.20;20.97;100853.84;4516917;31;33555;-66
2022/03/26 07:05:06;;;;;;;14.40;7.78;;;;;;;22.08;22.40;100853.47;4516154;31;34020;-66
2022/03/26 07:07:34;;;;;;;13.23;7.68;;;;;;;22.07;21.23;100851.81;4516751;31;34285;-68
2022/03/26 07:10:02;;;;;;;13.75;7.55;;;;;;;22.47;21.38;100852.34;4515968;31;34849;-67
2022/03/26 07:12:29;;;;;;;12.75;6.93;;;;;;;23.22;19.60;100854.06;4514081;31;33851;-67
2022/03/26 07:14:57;;;;;;;15.30;7.53;;;;;;;22.55;20.96;100862.72;4515383;31;34824;-66
2022/03/26 07:17:25;;;;;;;12.98;7.20;;;;;;;22.92;21.74;100858.19;4515663;31;34057;-66
2022/03/26 07:19:52;;;;;;;11.65;6.82;;;;;;;22.22;21.49;100856.28;4517679;31;33960;-65
2022/03/26 07:22:19;;;;;;;14.43;7.53;;;;;;;23.07;22.26;100862.66;4516700;31;33453;-66
2022/03/26 07:24:47;;;;;;;11.35;6.87;;;;;;;22.53;22.65;100859.41;4510560;31;33995;-66
2022/03/26 07:27:14;;;;;;;14.43;7.50;;;;;;;22.72;21.20;100856.59;4518213;31;33921;-66
2022/03/26 07:29:42;;;;;;;15.27;7.57;;;;;;;22.92;23.56;100858.19;4516031;31;34089;-66
2022/03/26 07:32:10;;;;;;;14.60;7.57;;;;;;;23.22;22.22;100855.97;4516660;31;33306;-68
2022/03/26 07:34:37;;;;;;;14.15;7.90;;;;;;;23.57;21.52;100867.50;4517934;31;34104;-71
2022/03/26 07:37:05;;;;;;;19.33;7.87;;;;;;;23.82;21.44;100863.38;4517585;31;34193;-72
2022/03/26 07:39:32;;;;;;;15.60;7.00;;;;;;;23.31;21.59;100865.22;4517731;31;33764;-65
2022/03/26 07:42:00;;;;;;;13.13;7.45;;;;;;;22.33;22.76;100868.84;4517720;31;33819;-68
2022/03/26 07:44:27;;;;;;;16.37;7.47;;;;;;;22.08;22.29;100862.56;4518022;31;34922;-67
2022/03/26 07:46:55;;;;;;;13.40;7.28;;;;;;;22.28;22.12;100858.69;4516376;31;34259;-66
2022/03/26 07:49:22;;;;;;;11.23;7.00;;;;;;;23.64;20.72;100863.16;4515269;31;34540;-70
2022/03/26 07:51:50;;;;;;;13.90;7.62;;;;;;;21.93;21.52;100854.50;4516542;31;33391;-69
2022/03/26 07:54:17;;;;;;;13.85;7.70;;;;;;;23.17;19.58;100861.63;4515525;31;34073;-68
2022/03/26 07:56:45;;;;;;;12.82;6.95;;;;;;;23.31;19.77;100862.47;4516636;31;34046;-72
2022/03/26 07:59:13;;;;;;;12.88;7.22;;;;;;;23.64;19.99;100867.87;4515555;31;34920;-71
2022/03/26 08:01:41;;;;;;;12.35;6.90;;;;;;;23.59;19.92;100866.03;4514105;31;33444;-67
2022/03/26 08:04:09;;;;;;;17.67;7.43;;;;;;;23.68;18.76;100871.69;4516947;31;33347;-68
2022/03/26 08:06:36;;;;;;;15.73;7.72;;;;;;;23.39;18.82;100867.28;4515602;31;34247;-68
2022/03/26 08:09:04;;;;;;;12.10;7.45;;;;;;;22.69;22.16;100862.75;4516295;31;34360;-66
2022/03/26 08:11:31;;;;;;;14.48;7.80;;;;;;;22.99;21.16;100868.84;4514800;31;33493;-66
2022/03/26 08:13:59;;;;;;;14.80;7.95;;;;;;;23.46;20.36;100864.91;4516188;31;35036;-71
2022/03/26 08:16:26;;;;;;;13.32;7.82;;;;;;;23.84;19.97;100852.78;4516664;31;35075;-67
2022/03/26 08:18:54;;;;;;;13.35;7.00;;;;;;;24.06;19.21;100852.84;4513402;31;80569;-68
2022/03/26 08:21:21;;;;;;;13.18;7.65;;;;;;;24.34;19.85;100859.12;4515290;31;33538;-66
2022/03/26 08:23:49;;;;;;;12.60;7.20;;;;;;;24.20;19.81;100863.06;4517154;31;33976;-64
2022/03/26 08:26:19;;;;;;;10.90;6.30;;;;;;;24.72;18.36;100863.47;4511262;31;35123;-64
2022/03/26 08:28:47;;;;;;;11.93;6.97;;;;;;;24.50;18.20;100851.25;4515989;31;33887;-66
2022/03/26 08:31:14;;;;;;;11.25;5.97;;;;;;;24.71;18.88;100859.88;4517307;31;34073;-65
2022/03/26 08:33:42;;;;;;;9.18;5.95;;;;;;;23.78;20.16;100851.25;4515253;31;34176;-70
2022/03/26 08:36:10;;;;;;;14.10;6.50;;;;;;;23.11;20.43;100855.38;4516229;31;33844;-70
2022/03/26 08:38:38;;;;;;;12.05;5.93;;;;;;;23.92;18.94;100855.62;4517178;31;33717;-69
2022/03/26 08:41:06;;;;;;;10.15;5.53;;;;;;;23.61;21.15;100862.97;4513691;31;33573;-67
2022/03/26 08:43:33;;;;;;;10.88;5.95;;;;;;;23.34;20.06;100857.13;4516028;31;33703;-71
2022/03/26 08:46:00;;;;;;;9.80;5.15;;;;;;;23.24;20.52;100854.56;4517259;31;35144;-67
2022/03/26 08:48:28;;;;;;;10.18;5.70;;;;;;;22.59;21.70;100854.59;4516842;31;34023;-68
2022/03/26 08:50:55;;;;;;;10.23;5.55;;;;;;;23.31;21.20;100860.50;4517191;31;33302;-67
2022/03/26 08:53:23;;;;;;;10.05;5.53;;;;;;;23.05;21.43;100865.72;4515308;31;34738;-67
2022/03/26 08:55:51;;;;;;;8.90;5.45;;;;;;;22.11;22.82;100858.38;4515927;31;34077;-67
2022/03/26 08:58:18;;;;;;;10.25;5.90;;;;;;;21.26;23.16;100858.06;4517108;31;34752;-67
2022/03/26 09:00:47;;;;;;;9.50;5.87;;;;;;;22.21;21.68;100854.66;4517509;31;33316;-66
2022/03/26 09:03:17;;;;;;;16.77;6.28;;;;;;;22.30;21.06;100852.88;4516782;31;34553;-67
2022/03/26 09:05:49;;;;;;;10.10;5.93;;;;;;;21.81;22.55;100856.88;4517139;31;35065;-66
2022/03/26 09:08:17;;;;;;;10.98;6.47;;;;;;;22.33;22.37;100855.03;4517220;31;33955;-67
2022/03/26 09:10:45;;;;;;;9.85;6.28;;;;;;;21.28;24.01;100855.03;4516837;31;33560;-67
2022/03/26 09:13:12;;;;;;;11.18;5.75;;;;;;;20.48;24.40;100857.16;4517150;31;33948;-67
2022/03/26 09:15:40;;;;;;;15.30;6.85;;;;;;;21.12;23.94;100861.81;4517190;31;35156;-67
2022/03/26 09:18:08;;;;;;;15.35;5.85;;;;;;;21.87;22.84;100850.16;4516723;31;34044;-67
2022/03/26 09:20:38;;;;;;;13.20;5.97;;;;;;;21.99;21.20;100856.06;4502712;31;33288;-68
2022/03/26 09:23:06;;;;;;;12.40;5.25;;;;;;;22.10;23.03;100853.97;4501363;31;33940;-68
2022/03/26 09:25:34;;;;;;;11.35;6.22;;;;;;;21.80;23.49;100852.47;4501184;31;35073;-68
2022/03/26 09:28:02;;;;;;;9.45;5.53;;;;;;;22.42;21.86;100844.94;4506093;31;33964;-68
2022/03/26 09:30:31;;;;;;;9.55;5.40;;;;;;;21.99;22.13;100839.50;4516811;31;33307;-69
2022/03/26 09:33:00;;;;;;;10.07;5.30;;;;;;;22.84;21.21;100842.28;4514673;31;33766;-67
2022/03/26 09:35:27;;;;;;;10.60;5.07;;;;;;;22.32;22.09;100834.03;4515365;31;34799;-68
2022/03/26 09:37:55;;;;;;;8.90;5.15;;;;;;;21.71;23.03;100838.50;4508749;31;34405;-66
2022/03/26 09:40:24;;;;;;;10.25;5.72;;;;;;;21.94;21.96;100838.75;4511304;31;33536;-67
2022/03/26 09:42:52;;;;;;;7.82;4.50;;;;;;;22.21;23.76;100838.06;4515778;31;33608;-66
2022/03/26 09:45:20;;;;;;;11.75;4.85;;;;;;;22.82;22.36;100831.50;4516813;31;34332;-67
2022/03/26 09:47:48;;;;;;;9.80;5.18;;;;;;;23.25;21.13;100839.59;4515934;31;32895;-66
2022/03/26 09:50:15;;;;;;;10.63;5.45;;;;;;;23.11;21.34;100844.31;4516779;31;32367;-66
2022/03/26 09:52:44;;;;;;;10.43;5.20;;;;;;;22.73;21.24;100841.66;4516477;31;34004;-66
2022/03/26 09:55:12;;;;;;;8.65;4.87;;;;;;;22.36;21.95;100839.81;4516784;31;34195;-66
2022/03/26 09:57:40;;;;;;;9.82;4.85;;;;;;;21.18;22.57;100836.63;4513931;31;34077;-66
2022/03/26 10:00:09;;;;;;;8.65;4.68;;;;;;;22.01;23.21;100840.03;4516463;31;34328;-66
2022/03/26 10:02:38;;;;;;;8.50;4.60;;;;;;;21.74;21.77;100832.38;4516059;31;34834;-68
2022/03/26 10:05:08;;;;;;;11.45;4.45;;;;;;;21.84;21.57;100840.53;4514723;31;35164;-65
2022/03/26 10:07:35;;;;;;;9.63;4.20;;;;;;;21.13;22.99;100839.47;4512889;31;33422;-67
2022/03/26 10:10:03;;;;;;;6.65;4.05;;;;;;;22.18;21.09;100841.41;4516442;31;33090;-67
2022/03/26 10:12:31;;;;;;;8.93;4.55;;;;;;;21.67;20.95;100841.03;4516553;31;33846;-68
2022/03/26 10:15:00;;;;;;;8.98;4.47;;;;;;;21.58;20.30;100829.00;4513202;31;34212;-68
2022/03/26 10:17:28;;;;;;;7.32;4.18;;;;;;;21.67;20.84;100837.47;4500576;31;33925;-69
2022/03/26 10:20:01;;;;;;;8.15;4.43;;;;;;;22.32;20.78;100829.31;4509964;31;33398;-69
2022/03/26 10:22:37;;;;;;;7.75;3.62;;;;;;;23.03;19.60;100829.22;4507102;31;34658;-69
2022/03/26 10:25:10;;;;;;;10.13;4.05;;;;;;;23.28;18.67;100830.69;4505329;31;34935;-68
2022/03/26 10:27:48;;;;;;;9.90;3.95;;;;;;;22.21;19.98;100816.75;4515271;31;34103;-67
2022/03/26 10:33:21;;;;;;;7.97;4.65;;;;;;;21.97;18.63;100821.56;4516436;31;33995;-69
2022/03/26 10:35:56;;;;;;;8.27;4.00;;;;;;;22.35;19.03;100810.50;4516660;31;34292;-69
2022/03/26 10:38:38;;;;;;;8.32;3.95;;;;;;;22.43;18.58;100815.34;4516776;31;33428;-68
2022/03/26 10:41:07;;;;;;;7.50;3.65;;;;;;;23.25;17.30;100816.63;4515260;31;33301;-70
2022/03/26 10:43:37;;;;;;;7.72;4.25;;;;;;;23.90;17.67;100812.75;4515046;31;34031;-68
2022/03/26 10:46:04;;;;;;;7.47;4.68;;;;;;;23.01;18.39;100808.53;4514027;31;33962;-69
2022/03/26 10:48:36;;;;;;;11.00;4.37;;;;;;;22.99;18.28;100807.97;4515686;31;34775;-69
2022/03/26 10:51:09;;;;;;;7.85;4.18;;;;;;;23.20;18.06;100809.25;4516663;31;33550;-68
2022/03/26 10:53:41;;;;;;;7.15;3.87;;;;;;;21.84;18.55;100792.75;4515249;31;34273;-71
2022/03/26 10:56:11;;;;;;;9.15;4.95;;;;;;;23.17;18.53;100801.53;4515828;31;34769;-70
2022/03/26 10:58:40;;;;;;;9.13;4.90;;;;;;;22.19;19.37;100796.09;4515916;31;33997;-69
2022/03/26 11:01:08;;;;;;;9.95;4.82;;;;;;;22.36;18.46;100796.37;4515834;31;34375;-70
2022/03/26 11:03:36;;;;;;;9.20;4.97;;;;;;;23.22;18.66;100790.38;4515995;31;33945;-70
2022/03/26 11:06:10;;;;;;;7.78;4.00;;;;;;;23.32;17.76;100798.44;4515846;31;34428;-69
2022/03/26 11:08:38;;;;;;;11.00;5.32;;;;;;;23.66;18.13;100790.81;4515929;31;34701;-70
2022/03/26 11:11:07;;;;;;;9.20;4.50;;;;;;;21.56;20.05;100784.31;4514046;31;33456;-68
2022/03/26 11:13:44;;;;;;;10.45;4.57;;;;;;;21.26;19.74;100778.03;4516299;31;34071;-69
2022/03/26 11:16:30;;;;;;;8.38;4.70;;;;;;;22.36;20.11;100785.31;4515552;31;34064;-70
2022/03/26 11:19:25;;;;;;;10.77;5.07;;;;;;;22.76;19.77;100777.41;4516079;31;34139;-70
2022/03/26 11:22:22;;;;;;;9.07;4.97;;;;;;;21.88;18.89;100771.69;4515521;31;34394;-68
2022/03/26 11:25:03;;;;;;;9.25;5.12;;;;;;;20.90;20.01;100769.34;4480527;31;33631;-68
2022/03/26 11:27:42;;;;;;;12.15;5.95;;;;;;;19.88;22.08;100766.37;4507371;31;34255;-69
2022/03/26 11:30:19;;;;;;;10.40;5.18;;;;;;;21.20;20.94;100756.31;4514182;31;34769;-70